Time;durP1;ratioP1;P1;durP2;ratioP2;P2;SDS_P1;SDS_P2;PMS_P1;PMS_P2;Temp;Humidity;BMP_temperature;BMP_pressure;BME280_temperature;BME280_humidity;BME280_pressure;Samples;Min_cycle;Max_cycle;Signal;HPM_P1;HPM_P2
2022/08/01 00:00:49;;;;;;;2.42;1.17;;;;;;;22.41;64.55;101303.56;5064260;28;20052;-67
2022/08/01 00:03:17;;;;;;;2.90;1.48;;;;;;;22.27;65.09;101308.97;5081101;28;20051;-67
2022/08/01 00:05:45;;;;;;;4.32;1.10;;;;;;;22.69;64.25;101311.59;5091899;28;20082;-66
2022/08/01 00:08:12;;;;;;;3.50;1.40;;;;;;;22.83;63.31;101315.44;5044862;28;20059;-67
2022/08/01 00:10:40;;;;;;;5.47;1.65;;;;;;;22.97;62.85;101304.38;5094877;28;20063;-67
2022/08/01 00:13:09;;;;;;;1.73;1.20;;;;;;;23.02;62.60;101309.66;5089586;28;20087;-66
2022/08/01 00:15:37;;;;;;;4.50;1.25;;;;;;;22.95;62.44;101303.94;5075628;28;20052;-66
2022/08/01 00:18:04;;;;;;;2.88;1.38;;;;;;;22.60;64.01;101308.28;5038752;28;20410;-67
2022/08/01 00:20:32;;;;;;;3.05;1.20;;;;;;;22.56;63.90;101310.25;5067969;28;20047;-67
2022/08/01 00:23:02;;;;;;;3.00;1.50;;;;;;;22.64;64.19;101301.53;5088834;28;20052;-67
2022/08/01 00:25:29;;;;;;;3.50;1.95;;;;;;;22.97;62.63;101298.75;5083834;28;20108;-67
2022/08/01 00:28:01;;;;;;;4.90;1.58;;;;;;;22.65;63.53;101302.34;5081843;28;20048;-67
2022/08/01 00:30:30;;;;;;;2.15;1.27;;;;;;;22.67;63.28;101294.31;5080701;28;20057;-67
2022/08/01 00:32:58;;;;;;;3.63;1.48;;;;;;;22.80;63.14;101295.72;5069139;28;20048;-67
2022/08/01 00:35:25;;;;;;;5.28;1.30;;;;;;;22.56;64.06;101297.00;5063785;28;20053;-67
2022/08/01 00:37:53;;;;;;;3.55;1.30;;;;;;;22.79;63.49;101292.09;5074269;28;20048;-67
2022/08/01 00:40:20;;;;;;;6.22;1.50;;;;;;;22.79;63.19;101282.84;5079067;28;20063;-67
2022/08/01 00:42:50;;;;;;;2.92;1.30;;;;;;;22.89;63.22;101288.59;5090951;28;20056;-68
2022/08/01 00:45:18;;;;;;;3.35;1.33;;;;;;;22.98;62.28;101285.53;5094212;28;20044;-66
2022/08/01 00:47:45;;;;;;;3.75;1.30;;;;;;;22.94;62.88;101285.47;5093838;28;20048;-67
2022/08/01 00:50:12;;;;;;;3.90;1.40;;;;;;;22.92;62.23;101278.59;5081837;28;20051;-67
2022/08/01 00:52:40;;;;;;;2.30;1.05;;;;;;;22.43;64.08;101281.53;5081859;28;20048;-67
2022/08/01 00:55:09;;;;;;;3.83;1.40;;;;;;;22.60;64.20;101283.81;5092252;28;20056;-68
2022/08/01 00:57:41;;;;;;;7.63;1.50;;;;;;;22.49;64.28;101279.22;5083245;28;20033;-68
2022/08/01 01:00:28;;;;;;;3.13;1.30;;;;;;;22.72;63.91;101277.13;5088476;28;20052;-67
2022/08/01 01:02:56;;;;;;;2.13;1.10;;;;;;;22.58;64.21;101282.59;5072792;28;20049;-67
2022/08/01 01:05:24;;;;;;;4.82;1.95;;;;;;;22.51;64.36;101283.25;5088405;28;20047;-67
2022/08/01 01:08:04;;;;;;;5.47;1.55;;;;;;;22.44;64.62;101274.72;5084022;28;20061;-67
2022/08/01 01:10:36;;;;;;;3.45;1.55;;;;;;;22.54;64.45;101276.94;5087858;28;20067;-67
2022/08/01 01:13:07;;;;;;;2.00;1.30;;;;;;;22.48;64.56;101274.78;5073734;28;20055;-65
2022/08/01 01:15:41;;;;;;;4.30;1.63;;;;;;;22.70;63.73;101280.31;5082861;28;20056;-67
2022/08/01 01:18:08;;;;;;;3.75;1.40;;;;;;;22.69;63.88;101281.53;5078211;28;20048;-67
2022/08/01 01:20:37;;;;;;;3.50;1.63;;;;;;;22.68;64.20;101279.13;5092501;28;20047;-67
2022/08/01 01:23:13;;;;;;;4.65;1.50;;;;;;;22.78;63.53;101273.63;5064874;28;20514;-66
2022/08/01 01:26:02;;;;;;;4.43;1.50;;;;;;;22.85;63.29;101276.53;5073236;28;20050;-66
2022/08/01 01:29:03;;;;;;;3.22;1.60;;;;;;;22.91;63.11;101280.59;5040575;28;20060;-66
2022/08/01 01:31:36;;;;;;;2.63;1.30;;;;;;;22.97;62.99;101273.47;5072342;28;20045;-66
2022/08/01 01:34:04;;;;;;;4.50;1.40;;;;;;;23.09;62.53;101278.00;5068050;28;20063;-66
2022/08/01 01:36:32;;;;;;;7.90;1.42;;;;;;;22.90;63.10;101281.81;5073794;28;20060;-66
2022/08/01 01:39:00;;;;;;;3.88;1.25;;;;;;;22.78;63.59;101284.03;5087485;28;20048;-66
2022/08/01 01:41:28;;;;;;;2.75;1.23;;;;;;;22.77;63.63;101277.63;5078312;28;20059;-66
2022/08/01 01:43:56;;;;;;;2.13;0.98;;;;;;;22.73;63.97;101282.41;5067282;28;20411;-66
2022/08/01 01:46:26;;;;;;;3.22;1.35;;;;;;;22.73;63.80;101282.41;5091068;28;20071;-67
2022/08/01 01:48:54;;;;;;;;;;;;;;;22.45;64.63;101275.53;5083079;28;20408;-66
2022/08/01 01:51:23;;;;;;;5.45;1.27;;;;;;;22.73;64.37;101267.53;5088212;28;19924;-66
2022/08/01 01:53:52;;;;;;;3.67;1.30;;;;;;;22.90;63.45;101270.56;5080111;28;20061;-66
2022/08/01 01:56:20;;;;;;;3.33;1.20;;;;;;;22.91;63.33;101265.75;5086810;28;20056;-66
2022/08/01 01:59:00;;;;;;;6.38;1.25;;;;;;;22.77;63.34;101266.38;5069793;28;20063;-66
2022/08/01 02:01:31;;;;;;;3.03;1.45;;;;;;;22.99;63.20;101270.25;5093097;28;20784;-66
2022/08/01 02:04:20;;;;;;;2.95;1.20;;;;;;;22.77;63.65;101260.75;5061542;28;20075;-66
2022/08/01 02:06:50;;;;;;;3.10;1.20;;;;;;;22.71;63.73;101261.47;5080793;28;20083;-67
2022/08/01 02:09:19;;;;;;;2.05;1.30;;;;;;;22.62;64.26;101273.00;5090987;28;20052;-66
2022/08/01 02:11:48;;;;;;;2.63;1.20;;;;;;;22.73;63.85;101267.53;5091529;28;20062;-66
2022/08/01 02:14:35;;;;;;;3.75;1.30;;;;;;;22.61;64.67;101276.22;5067154;28;20057;-66
2022/08/01 02:17:06;;;;;;;2.38;1.15;;;;;;;22.95;63.37;101269.41;5090099;28;20079;-67
2022/08/01 02:19:34;;;;;;;2.20;1.42;;;;;;;23.04;63.08;101265.09;5078061;28;20051;-66
2022/08/01 02:22:06;;;;;;;;;;;;;;;22.77;63.70;101268.41;5076459;28;20060;-66
2022/08/01 02:24:48;;;;;;;2.65;1.30;;;;;;;22.86;63.90;101263.28;5091921;28;19939;-66
2022/08/01 02:27:22;;;;;;;5.28;1.60;;;;;;;22.99;63.24;101264.66;5073141;28;20055;-66
2022/08/01 02:29:53;;;;;;;1.92;1.10;;;;;;;22.80;63.52;101267.63;5076571;28;20380;-65
2022/08/01 02:32:30;;;;;;;5.35;1.48;;;;;;;22.68;63.92;101270.69;5059495;28;20048;-66
2022/08/01 02:35:00;;;;;;;4.00;1.38;;;;;;;22.59;64.10;101265.34;5074013;28;20056;-66
2022/08/01 02:37:28;;;;;;;;;;;;;;;22.56;64.39;101268.13;5077216;28;20067;-67
2022/08/01 02:39:56;;;;;;;3.67;1.35;;;;;;;22.61;64.40;101262.16;5076389;28;19924;-66
2022/08/01 02:42:25;;;;;;;3.42;1.30;;;;;;;22.62;64.39;101263.78;5079004;28;20052;-65
2022/08/01 02:44:53;;;;;;;2.10;1.23;;;;;;;22.76;63.92;101263.94;5084569;28;20056;-66
2022/08/01 02:47:22;;;;;;;3.72;1.40;;;;;;;22.93;63.20;101266.16;5089762;28;20536;-67
2022/08/01 02:49:52;;;;;;;2.97;1.42;;;;;;;22.91;63.30;101262.94;5085779;28;20052;-66
2022/08/01 02:52:21;;;;;;;3.35;1.20;;;;;;;22.67;64.20;101271.84;5095537;28;20055;-66
2022/08/01 02:54:51;;;;;;;3.85;1.50;;;;;;;22.54;64.58;101264.84;5078045;28;20066;-67
2022/08/01 02:57:18;;;;;;;;;;;;;;;22.62;64.49;101275.00;5093569;28;20056;-66
2022/08/01 02:59:47;;;;;;;3.80;1.10;;;;;;;22.53;64.69;101268.81;5085851;28;19924;-67
2022/08/01 03:02:16;;;;;;;2.53;1.20;;;;;;;22.51;65.12;101262.81;5080559;28;20052;-67
2022/08/01 03:04:44;;;;;;;5.25;1.65;;;;;;;22.59;64.89;101261.72;5084536;28;20067;-67
2022/08/01 03:07:12;;;;;;;1.80;1.20;;;;;;;22.61;64.50;101260.19;5076275;28;20044;-66
2022/08/01 03:09:43;;;;;;;2.60;1.05;;;;;;;22.29;65.79;101262.50;5083619;28;20492;-66
2022/08/01 03:12:11;;;;;;;;;;;;;;;22.37;66.10;101257.00;5095066;28;20052;-66
2022/08/01 03:14:39;;;;;;;2.75;1.13;;;;;;;22.28;66.08;101260.88;5086825;28;19920;-66
2022/08/01 03:17:08;;;;;;;2.97;0.98;;;;;;;22.30;66.14;101269.72;5094906;28;20052;-65
2022/08/01 03:19:37;;;;;;;3.72;1.40;;;;;;;22.33;66.47;101256.94;5075588;28;20407;-67
2022/08/01 03:22:25;;;;;;;2.63;1.25;;;;;;;22.35;66.59;101258.16;5069355;28;20070;-65
2022/08/01 03:24:53;;;;;;;2.75;1.30;;;;;;;22.44;66.00;101268.31;5063584;28;20048;-66
2022/08/01 03:27:21;;;;;;;2.83;1.20;;;;;;;22.22;66.81;101270.84;5075315;28;20044;-66
2022/08/01 03:29:49;;;;;;;3.35;1.10;;;;;;;22.26;67.04;101271.66;5075329;28;20048;-66
2022/08/01 03:32:17;;;;;;;2.65;1.20;;;;;;;21.82;69.48;101273.41;5058180;28;20071;-66
2022/08/01 03:34:45;;;;;;;2.47;1.17;;;;;;;22.01;69.07;101276.13;5062526;28;20044;-66
2022/08/01 03:37:24;;;;;;;3.47;1.20;;;;;;;22.11;68.45;101278.28;5071116;28;20064;-66
2022/08/01 03:39:58;;;;;;;3.40;1.67;;;;;;;21.63;70.45;101275.44;5082677;28;20053;-66
2022/08/01 03:42:35;;;;;;;4.40;1.25;;;;;;;21.54;71.50;101275.69;5070405;28;20060;-66
2022/08/01 03:45:09;;;;;;;7.85;1.60;;;;;;;21.62;71.27;101273.84;5093166;28;20056;-65
2022/08/01 03:47:43;;;;;;;2.97;1.38;;;;;;;22.04;69.90;101280.97;5081052;28;20091;-67
2022/08/01 03:50:13;;;;;;;3.08;1.23;;;;;;;22.25;69.14;101277.66;5096416;28;20048;-67
2022/08/01 03:52:43;;;;;;;3.47;1.30;;;;;;;22.34;68.30;101275.41;5081947;28;20052;-67
2022/08/01 03:55:11;;;;;;;;;;;;;;;22.23;68.47;101274.41;5080172;28;20056;-66
2022/08/01 03:57:39;;;;;;;4.80;1.15;;;;;;;21.92;69.35;101272.75;5078708;28;19920;-67
2022/08/01 04:00:08;;;;;;;2.78;1.40;;;;;;;22.12;69.10;101273.47;5081494;28;20045;-67
2022/08/01 04:02:39;;;;;;;1.65;1.10;;;;;;;22.57;67.51;101272.53;5069881;28;20518;-67
2022/08/01 04:05:07;;;;;;;2.95;1.17;;;;;;;22.70;66.99;101271.13;5075538;28;20048;-67
2022/08/01 04:07:39;;;;;;;2.38;1.13;;;;;;;22.57;66.96;101278.97;5094581;28;20392;-67
2022/08/01 04:10:06;;;;;;;2.70;1.20;;;;;;;22.27;67.95;101275.28;5070589;28;20048;-67
2022/08/01 04:12:34;;;;;;;4.75;1.40;;;;;;;22.20;68.56;101270.41;5081388;28;20056;-67
2022/08/01 04:15:02;;;;;;;4.78;1.30;;;;;;;22.18;68.77;101269.97;5090392;28;20056;-67
2022/08/01 04:17:29;;;;;;;6.65;1.42;;;;;;;22.06;68.93;101264.56;5084773;28;20056;-67
2022/08/01 04:19:56;;;;;;;4.53;1.50;;;;;;;22.35;68.56;101263.78;5089103;28;20044;-66
2022/08/01 04:22:24;;;;;;;5.00;1.60;;;;;;;22.60;67.70;101266.97;5073898;28;20056;-67
2022/08/01 04:24:55;;;;;;;5.15;1.40;;;;;;;22.68;66.71;101263.06;5089689;28;20399;-67
2022/08/01 04:27:28;;;;;;;4.13;1.58;;;;;;;22.65;66.89;101263.03;5082996;28;20055;-67
2022/08/01 04:30:26;;;;;;;3.35;1.42;;;;;;;22.42;67.65;101259.47;5059962;28;20060;-66
2022/08/01 04:32:55;;;;;;;2.85;1.40;;;;;;;22.35;67.63;101252.56;5092474;28;20056;-67
2022/08/01 04:35:24;;;;;;;6.18;1.70;;;;;;;22.45;67.21;101251.09;5092110;28;20063;-67
2022/08/01 04:38:16;;;;;;;10.88;1.63;;;;;;;22.65;66.94;101251.78;5086731;28;20056;-67
2022/08/01 04:40:47;;;;;;;5.18;1.52;;;;;;;22.42;67.39;101253.84;5094220;28;20112;-67
2022/08/01 04:43:14;;;;;;;3.80;1.20;;;;;;;22.65;66.73;101254.59;5089756;28;20067;-68
2022/08/01 04:45:43;;;;;;;5.97;1.50;;;;;;;22.75;66.62;101259.53;5083816;28;20094;-67
2022/08/01 04:48:10;;;;;;;2.03;1.17;;;;;;;22.80;65.81;101260.00;5077162;28;20059;-66
2022/08/01 04:50:41;;;;;;;4.35;1.08;;;;;;;22.61;66.33;101260.19;5071585;28;20049;-67
2022/08/01 04:53:18;;;;;;;2.47;1.10;;;;;;;22.57;66.39;101266.91;5087502;28;20056;-67
2022/08/01 04:55:46;;;;;;;3.78;1.40;;;;;;;22.37;67.37;101266.22;5093792;28;20060;-67
2022/08/01 04:58:14;;;;;;;3.30;1.20;;;;;;;22.40;67.27;101268.28;5076576;28;20398;-71
2022/08/01 05:00:46;;;;;;;2.88;1.17;;;;;;;22.34;66.97;101270.59;5095325;28;20052;-71
2022/08/01 05:03:13;;;;;;;2.80;1.30;;;;;;;22.45;66.98;101267.94;5088835;28;20048;-71
2022/08/01 05:05:41;;;;;;;4.53;1.40;;;;;;;22.46;66.79;101279.97;5092510;28;20052;-71
2022/08/01 05:08:08;;;;;;;4.75;1.20;;;;;;;22.74;66.22;101283.19;5074481;28;20609;-71
2022/08/01 05:10:37;;;;;;;3.20;1.20;;;;;;;22.41;66.43;101283.91;5074530;28;20098;-70
2022/08/01 05:13:06;;;;;;;3.00;1.30;;;;;;;22.46;66.87;101280.78;5085124;28;20404;-70
2022/08/01 05:15:36;;;;;;;3.00;1.40;;;;;;;22.29;67.08;101284.97;5086590;28;20052;-70
2022/08/01 05:18:04;;;;;;;;;;;;;;;22.19;67.66;101291.22;5089978;28;20656;-70
2022/08/01 05:20:33;;;;;;;4.57;1.45;;;;;;;22.07;67.84;101293.44;5077955;28;19927;-71
2022/08/01 05:23:01;;;;;;;3.20;1.60;;;;;;;22.06;68.41;101289.81;5065784;28;20431;-70
2022/08/01 05:25:29;;;;;;;2.70;1.33;;;;;;;22.14;68.37;101293.56;5087760;28;20052;-71
2022/08/01 05:28:17;;;;;;;4.45;1.20;;;;;;;22.12;68.01;101293.13;5088074;28;20051;-70
2022/08/01 05:30:45;;;;;;;3.22;1.45;;;;;;;22.28;68.08;101285.34;5086832;28;20040;-71
2022/08/01 05:33:12;;;;;;;2.33;1.20;;;;;;;21.98;68.79;101287.28;5085763;28;20044;-72
2022/08/01 05:35:40;;;;;;;3.50;1.25;;;;;;;21.51;70.39;101296.06;5092503;28;20052;-70
2022/08/01 05:38:15;;;;;;;2.80;1.40;;;;;;;21.61;70.37;101281.41;5072882;28;20052;-70
2022/08/01 05:40:43;;;;;;;4.75;1.63;;;;;;;22.23;69.04;101296.88;5077857;28;20045;-66
2022/08/01 05:43:10;;;;;;;4.75;1.38;;;;;;;22.73;67.09;101295.63;5076135;28;20067;-68
2022/08/01 05:45:37;;;;;;;3.10;1.38;;;;;;;22.25;66.77;101289.72;5073667;28;20048;-67
2022/08/01 05:48:05;;;;;;;5.97;1.50;;;;;;;22.23;67.54;101289.28;5073583;28;20056;-67
2022/08/01 05:50:33;;;;;;;4.28;1.27;;;;;;;22.44;66.09;101297.19;5067869;28;20052;-68
2022/08/01 05:53:00;;;;;;;5.28;1.23;;;;;;;22.36;66.52;101303.91;5073403;28;20202;-68
2022/08/01 05:55:28;;;;;;;3.88;1.38;;;;;;;22.44;66.53;101299.22;5072629;28;20052;-67
2022/08/01 05:57:55;;;;;;;4.72;1.45;;;;;;;22.48;66.26;101298.06;5072278;28;20052;-67
2022/08/01 06:00:22;;;;;;;2.63;1.35;;;;;;;22.41;66.46;101300.75;5053286;28;20049;-67
2022/08/01 06:02:50;;;;;;;2.67;1.38;;;;;;;22.38;66.85;101309.94;5066416;28;20052;-67
2022/08/01 06:05:17;;;;;;;1.85;1.13;;;;;;;22.13;67.53;101303.97;5089070;28;20049;-67
2022/08/01 06:07:44;;;;;;;6.28;1.45;;;;;;;22.04;67.99;101302.59;5082834;28;20063;-67
2022/08/01 06:10:12;;;;;;;3.78;1.30;;;;;;;22.34;66.65;101307.09;5072547;28;20048;-69
2022/08/01 06:12:39;;;;;;;4.47;1.63;;;;;;;22.03;67.59;101307.41;5072602;28;20064;-68
2022/08/01 06:15:07;;;;;;;3.03;1.33;;;;;;;22.42;66.54;101302.38;5084834;28;20067;-68
2022/08/01 06:17:34;;;;;;;4.70;1.48;;;;;;;22.69;65.42;101303.19;5071799;28;20060;-68
2022/08/01 06:20:03;;;;;;;5.70;1.33;;;;;;;22.50;66.56;101304.13;5073524;28;20051;-68
2022/08/01 06:22:30;;;;;;;4.18;1.38;;;;;;;22.56;66.40;101307.44;5073706;28;20057;-70
2022/08/01 06:24:59;;;;;;;3.05;1.30;;;;;;;22.37;66.82;101308.31;5071864;28;20419;-69
2022/08/01 06:27:26;;;;;;;4.28;1.42;;;;;;;22.42;66.61;101304.38;5072983;28;20049;-66
2022/08/01 06:29:53;;;;;;;3.70;1.60;;;;;;;22.40;66.16;101316.00;5073267;28;20048;-68
2022/08/01 06:32:25;;;;;;;6.47;1.40;;;;;;;22.09;67.62;101310.69;5073388;28;20508;-69
2022/08/01 06:34:54;;;;;;;4.15;1.40;;;;;;;21.58;68.99;101309.41;5076948;28;20051;-69
2022/08/01 06:37:22;;;;;;;3.30;1.40;;;;;;;21.78;68.96;101308.97;5064128;28;20044;-68
2022/08/01 06:39:50;;;;;;;3.53;1.40;;;;;;;21.41;70.14;101319.09;5072205;28;20440;-69
2022/08/01 06:42:17;;;;;;;3.17;1.70;;;;;;;21.12;71.51;101316.91;5072368;28;20056;-67
2022/08/01 06:44:45;;;;;;;4.60;1.63;;;;;;;21.22;71.80;101314.34;5073508;28;20044;-67
2022/08/01 06:47:12;;;;;;;3.28;1.40;;;;;;;21.71;70.49;101303.22;5073187;28;20044;-68
2022/08/01 06:49:40;;;;;;;4.45;1.60;;;;;;;22.08;68.90;101301.47;5072492;28;20056;-69
2022/08/01 06:52:07;;;;;;;4.00;1.60;;;;;;;21.90;68.75;101303.19;5067458;28;20045;-69
2022/08/01 06:54:35;;;;;;;2.88;1.50;;;;;;;21.90;68.96;101296.75;5070198;28;20051;-69
2022/08/01 06:57:05;;;;;;;4.75;1.40;;;;;;;21.71;69.11;101302.41;5072526;28;21488;-69
2022/08/01 06:59:33;;;;;;;3.47;1.38;;;;;;;21.70;69.71;101315.63;5082040;28;20044;-69
2022/08/01 07:02:01;;;;;;;3.47;1.63;;;;;;;21.79;69.13;101309.81;5053873;28;20052;-70
2022/08/01 07:04:28;;;;;;;4.45;2.15;;;;;;;21.95;68.38;101307.69;5073565;28;20055;-70
2022/08/01 07:06:56;;;;;;;3.53;1.90;;;;;;;21.34;71.19;101309.75;5055475;28;20044;-70
2022/08/01 07:09:24;;;;;;;4.55;1.67;;;;;;;21.65;70.02;101309.53;5074183;28;20056;-70
2022/08/01 07:11:52;;;;;;;3.47;1.70;;;;;;;21.69;69.88;101302.00;5072890;28;20048;-70
2022/08/01 07:14:20;;;;;;;4.75;1.75;;;;;;;21.62;69.73;101313.88;5073698;28;20044;-69
2022/08/01 07:16:47;;;;;;;5.15;2.10;;;;;;;22.31;68.00;101309.84;5074206;28;20052;-70
2022/08/01 07:19:15;;;;;;;7.13;1.83;;;;;;;22.22;66.96;101310.13;5044543;28;20048;-70
2022/08/01 07:21:43;;;;;;;5.22;2.10;;;;;;;21.98;67.83;101304.94;5080162;28;20040;-69
2022/08/01 07:24:13;;;;;;;4.10;2.22;;;;;;;21.72;68.73;101312.44;5092489;28;20448;-69
2022/08/01 07:26:42;;;;;;;3.75;1.90;;;;;;;21.57;69.69;101310.56;5073733;28;20048;-69
2022/08/01 07:29:22;;;;;;;5.13;2.60;;;;;;;21.66;69.35;101317.56;5085969;28;20147;-70
2022/08/01 07:31:51;;;;;;;5.63;2.20;;;;;;;21.93;68.08;101319.25;5072519;28;20295;-69
2022/08/01 07:34:18;;;;;;;9.20;2.70;;;;;;;21.37;70.23;101321.03;5084188;28;20060;-71
2022/08/01 07:36:46;;;;;;;44.50;5.53;;;;;;;21.76;69.23;101316.13;5074909;28;20064;-70
2022/08/01 07:39:13;;;;;;;13.00;3.10;;;;;;;21.89;68.86;101317.59;5071230;28;20401;-70
2022/08/01 07:41:40;;;;;;;15.15;3.47;;;;;;;22.42;67.73;101316.41;5068028;28;20051;-70
2022/08/01 07:44:28;;;;;;;7.78;3.10;;;;;;;22.66;65.44;101318.00;5075416;28;20068;-69
2022/08/01 07:46:55;;;;;;;5.13;2.80;;;;;;;22.57;65.53;101325.88;5072786;28;20049;-71
2022/08/01 07:49:22;;;;;;;8.55;3.00;;;;;;;22.02;66.84;101325.41;5058893;28;20059;-70
2022/08/01 07:51:50;;;;;;;5.50;2.63;;;;;;;21.89;68.44;101332.44;5063308;28;20045;-70
2022/08/01 07:54:31;;;;;;;12.18;2.95;;;;;;;22.31;66.68;101338.72;5080287;28;20494;-70
2022/08/01 07:57:01;;;;;;;;;;;;;;;22.39;66.23;101334.00;5077982;28;20052;-69
2022/08/01 07:59:28;;;;;;;12.25;3.15;;;;;;;22.59;65.61;101337.56;5057216;28;20376;-70
2022/08/01 08:01:56;;;;;;;7.07;2.80;;;;;;;22.73;65.01;101340.56;5067888;28;20044;-70
2022/08/01 08:04:24;;;;;;;7.60;2.88;;;;;;;22.87;64.33;101330.34;5070579;28;20045;-69
2022/08/01 08:06:53;;;;;;;4.82;2.83;;;;;;;22.88;63.85;101340.38;5066752;28;20057;-70
2022/08/01 08:09:20;;;;;;;11.93;3.40;;;;;;;22.41;65.30;101345.69;5071283;28;20063;-70
2022/08/01 08:11:48;;;;;;;4.97;2.80;;;;;;;22.60;65.90;101336.34;5067005;28;20048;-71
2022/08/01 08:14:16;;;;;;;5.93;2.70;;;;;;;22.68;64.52;101336.09;5077098;28;20048;-71
2022/08/01 08:16:43;;;;;;;5.50;2.70;;;;;;;22.93;64.22;101339.22;5068757;28;20040;-71
2022/08/01 08:19:11;;;;;;;7.90;3.40;;;;;;;22.93;63.67;101336.41;5071569;28;20051;-71
2022/08/01 08:21:39;;;;;;;7.60;2.97;;;;;;;23.29;63.28;101336.47;5060877;28;20076;-72
2022/08/01 08:24:19;;;;;;;4.75;2.95;;;;;;;23.29;61.54;101335.69;5068150;28;20053;-71
2022/08/01 08:26:58;;;;;;;4.78;2.97;;;;;;;23.25;62.47;101338.44;5071688;28;20151;-72
2022/08/01 08:29:27;;;;;;;7.30;3.35;;;;;;;23.11;62.09;101337.44;5054014;28;20427;-71
2022/08/01 08:31:54;;;;;;;4.38;2.83;;;;;;;23.09;62.24;101340.66;5072151;28;20048;-71
2022/08/01 08:34:23;;;;;;;7.10;2.90;;;;;;;23.40;61.31;101345.84;5070873;28;20519;-72
2022/08/01 08:36:51;;;;;;;5.13;2.90;;;;;;;23.29;60.57;101335.69;5077697;28;20056;-71
2022/08/01 08:39:19;;;;;;;4.53;2.72;;;;;;;23.26;61.25;101327.97;5069452;28;20048;-71
2022/08/01 08:41:47;;;;;;;9.02;3.20;;;;;;;23.83;60.00;101323.78;5070375;28;20538;-72
2022/08/01 08:44:17;;;;;;;4.70;2.80;;;;;;;23.90;59.36;101315.41;5052230;28;20052;-71
2022/08/01 08:46:47;;;;;;;6.20;3.42;;;;;;;23.70;59.48;101319.63;5070719;28;20549;-72
2022/08/01 08:49:18;;;;;;;5.85;3.63;;;;;;;24.04;59.10;101316.34;5068497;28;20059;-71
2022/08/01 08:51:48;;;;;;;4.25;2.95;;;;;;;24.34;57.86;101311.34;5073483;28;20044;-71
2022/08/01 08:54:18;;;;;;;4.97;2.78;;;;;;;24.76;56.86;101304.38;5079901;28;20051;-72
2022/08/01 08:56:46;;;;;;;4.00;2.20;;;;;;;24.68;55.03;101305.50;5073101;28;20051;-73
2022/08/01 08:59:14;;;;;;;3.50;2.10;;;;;;;24.64;54.87;101301.84;5070875;28;20053;-71
2022/08/01 09:01:42;;;;;;;3.53;2.00;;;;;;;24.39;55.36;101302.53;5071042;28;20047;-71
2022/08/01 09:04:10;;;;;;;4.25;1.90;;;;;;;24.41;55.41;101302.94;5087420;28;20048;-71
2022/08/01 09:06:38;;;;;;;4.68;1.80;;;;;;;24.84;54.36;101297.56;5067807;28;20052;-70
2022/08/01 09:09:07;;;;;;;3.15;1.77;;;;;;;24.73;53.52;101307.97;5070793;28;20048;-70
2022/08/01 09:11:35;;;;;;;6.18;1.65;;;;;;;24.66;54.70;101310.72;5071677;28;20045;-71
2022/08/01 09:14:13;;;;;;;3.65;1.60;;;;;;;24.44;54.83;101304.97;5069601;28;20048;-71
2022/08/01 09:16:44;;;;;;;5.22;1.60;;;;;;;24.62;53.38;101321.97;5070048;28;20048;-71
2022/08/01 09:19:17;;;;;;;3.38;1.42;;;;;;;23.46;55.02;101329.44;5070904;28;20048;-71
2022/08/01 09:22:07;;;;;;;2.75;1.40;;;;;;;23.14;57.17;101337.50;5072122;28;20048;-70
2022/08/01 09:24:36;;;;;;;3.88;1.98;;;;;;;23.29;57.66;101341.31;5082283;28;20052;-70
2022/08/01 09:27:20;;;;;;;4.20;2.03;;;;;;;23.56;57.47;101333.56;5069813;28;20044;-70
2022/08/01 09:29:51;;;;;;;5.07;2.00;;;;;;;23.98;56.31;101315.06;5062222;28;20063;-71
2022/08/01 09:32:29;;;;;;;6.63;2.05;;;;;;;24.17;55.76;101331.75;5069594;28;20752;-71
2022/08/01 09:35:25;;;;;;;3.55;1.90;;;;;;;23.59;56.96;101327.19;5065527;28;20384;-69
2022/08/01 09:38:17;;;;;;;4.07;2.22;;;;;;;23.87;56.86;101324.63;5069155;28;20052;-72
2022/08/01 09:40:50;;;;;;;4.30;2.67;;;;;;;24.07;56.13;101314.75;5066647;28;20047;-71
2022/08/01 09:43:18;;;;;;;5.95;2.38;;;;;;;24.06;56.31;101322.41;5069000;28;20039;-71
2022/08/01 09:45:47;;;;;;;9.87;2.37;;;;;;;23.69;57.69;101324.47;5068789;28;20059;-71
2022/08/01 09:48:19;;;;;;;5.80;2.28;;;;;;;23.84;57.25;101334.66;5066095;28;20064;-73
2022/08/01 09:50:53;;;;;;;4.57;1.90;;;;;;;23.92;56.61;101336.31;5068309;28;20061;-70
2022/08/01 09:53:21;;;;;;;5.10;2.22;;;;;;;23.71;57.89;101341.75;5071447;28;20041;-71
2022/08/01 09:56:09;;;;;;;5.15;2.40;;;;;;;23.94;57.41;101335.94;5067211;28;20048;-70
2022/08/01 09:58:58;;;;;;;8.00;2.22;;;;;;;24.16;56.42;101321.69;5069464;28;20051;-71
2022/08/01 10:01:42;;;;;;;4.57;2.08;;;;;;;24.35;55.51;101320.59;5067259;28;20049;-69
2022/08/01 10:04:12;;;;;;;7.00;2.33;;;;;;;24.64;55.15;101328.03;5075916;28;20057;-71
2022/08/01 10:06:45;;;;;;;5.43;2.50;;;;;;;24.22;55.85;101330.56;5065366;28;20431;-71
2022/08/01 10:09:13;;;;;;;8.07;2.15;;;;;;;24.20;55.83;101333.75;5063999;28;20059;-71
2022/08/01 10:11:42;;;;;;;4.38;2.20;;;;;;;23.74;56.82;101335.38;5068428;28;20052;-70
2022/08/01 10:14:14;;;;;;;6.03;2.45;;;;;;;23.21;58.28;101331.94;5068615;28;20056;-70
2022/08/01 10:16:45;;;;;;;4.43;2.20;;;;;;;23.13;59.04;101332.25;5068127;28;20052;-69
2022/08/01 10:19:25;;;;;;;4.35;2.30;;;;;;;23.43;58.29;101333.81;5069092;28;20614;-70
2022/08/01 10:21:56;;;;;;;5.28;2.38;;;;;;;23.62;58.00;101332.84;5068835;28;20384;-69
2022/08/01 10:24:29;;;;;;;4.10;2.00;;;;;;;24.25;56.44;101324.16;5067256;28;20068;-71
2022/08/01 10:27:01;;;;;;;;;;;;;;;24.58;55.79;101332.44;5065934;28;20045;-71
2022/08/01 10:29:52;;;;;;;4.90;2.45;;;;;;;24.28;55.23;101332.63;5066963;28;19920;-70
2022/08/01 10:32:35;;;;;;;6.03;2.70;;;;;;;24.37;55.28;101316.19;5056261;28;20423;-71
2022/08/01 10:35:06;;;;;;;5.57;2.17;;;;;;;24.83;54.27;101315.66;5085185;28;20044;-70
2022/08/01 10:37:41;;;;;;;10.43;2.75;;;;;;;25.09;53.88;101324.66;5077075;28;20055;-72
2022/08/01 10:40:20;;;;;;;8.68;2.97;;;;;;;24.84;54.09;101320.94;5073823;28;20419;-70
2022/08/01 10:43:03;;;;;;;7.75;3.35;;;;;;;24.07;56.06;101329.66;5072573;28;20044;-71
2022/08/01 10:45:31;;;;;;;19.17;6.75;;;;;;;23.88;56.54;101323.44;5067069;28;20049;-69
2022/08/01 10:48:20;;;;;;;8.05;4.55;;;;;;;24.26;55.37;101331.41;5051630;28;20499;-73
2022/08/01 10:50:49;;;;;;;13.27;6.45;;;;;;;24.34;55.10;101338.69;5069839;28;20052;-69
2022/08/01 10:53:23;;;;;;;14.80;5.65;;;;;;;24.17;55.81;101328.94;5074134;28;20044;-70
2022/08/01 10:56:07;;;;;;;11.05;6.80;;;;;;;23.92;56.77;101322.25;5076566;28;20060;-71
2022/08/01 10:58:37;;;;;;;11.15;5.55;;;;;;;24.16;56.34;101321.69;5080969;28;20058;-71
2022/08/01 11:01:29;;;;;;;8.15;3.55;;;;;;;24.17;56.01;101320.47;5075288;28;20515;-70
2022/08/01 11:04:12;;;;;;;4.78;3.00;;;;;;;24.67;55.09;101313.13;5087050;28;20075;-68
2022/08/01 11:07:07;;;;;;;10.52;3.30;;;;;;;24.75;53.77;101317.66;5079409;28;20044;-67
2022/08/01 11:09:42;;;;;;;4.78;2.60;;;;;;;24.24;55.33;101323.34;5068048;28;20056;-69
2022/08/01 11:12:18;;;;;;;9.02;3.20;;;;;;;24.03;56.68;101319.56;5073246;28;20048;-70
2022/08/01 11:15:00;;;;;;;6.35;2.83;;;;;;;24.21;56.19;101318.50;5073914;28;20056;-68
2022/08/01 11:17:41;;;;;;;6.85;3.00;;;;;;;24.62;54.50;101313.53;5070350;28;20053;-65
2022/08/01 11:20:14;;;;;;;8.23;3.13;;;;;;;24.60;55.23;101321.56;5065010;28;20739;-65
2022/08/01 11:23:00;;;;;;;5.57;2.95;;;;;;;24.77;54.01;101320.09;5075139;28;20067;-65
2022/08/01 11:25:38;;;;;;;8.60;2.92;;;;;;;25.30;52.41;101310.63;5072337;28;20061;-68
2022/08/01 11:28:26;;;;;;;4.15;2.30;;;;;;;25.32;51.82;101313.03;5075078;28;20040;-68
2022/08/01 11:31:07;;;;;;;4.90;2.80;;;;;;;24.46;54.34;101315.88;5076270;28;20071;-66
2022/08/01 11:33:41;;;;;;;6.95;3.95;;;;;;;24.60;54.32;101321.56;5079837;28;20495;-69
2022/08/01 11:36:12;;;;;;;5.53;3.17;;;;;;;24.51;54.59;101313.47;5080225;28;20063;-68
2022/08/01 11:38:42;;;;;;;9.82;2.97;;;;;;;24.29;55.38;101320.16;5075241;28;20044;-68
2022/08/01 11:41:17;;;;;;;7.93;3.38;;;;;;;24.52;54.97;101317.91;5072830;28;20067;-69
2022/08/01 11:44:09;;;;;;;4.10;2.70;;;;;;;24.80;54.07;101308.81;5070968;28;20048;-69
2022/08/01 11:47:01;;;;;;;5.32;3.10;;;;;;;24.95;53.97;101298.44;5073883;28;20059;-69